Time;durP1;ratioP1;P1;durP2;ratioP2;P2;SDS_P1;SDS_P2;PMS_P1;PMS_P2;Temp;Humidity;BMP_temperature;BMP_pressure;BME280_temperature;BME280_humidity;BME280_pressure;Samples;Min_cycle;Max_cycle;Signal;HPM_P1;HPM_P2
2021/09/10 00:02:48;;;;;;;4.47;3.87;;;10.40;99.90;9.80;97006.00;;;;5082086;28;20219;-69
2021/09/10 00:05:37;;;;;;;4.77;4.00;;;10.30;99.90;10.00;97011.00;;;;5090315;28;20195;-69
2021/09/10 00:08:25;;;;;;;6.20;5.13;;;10.20;99.90;10.20;97008.00;;;;5067066;28;20196;-68
2021/09/10 00:11:14;;;;;;;4.57;4.17;;;10.30;99.90;10.40;97008.00;;;;5064836;28;20234;-69
2021/09/10 00:14:03;;;;;;;5.00;4.17;;;10.40;99.90;10.20;97011.00;;;;5065024;28;20200;-69
2021/09/10 00:16:52;;;;;;;5.70;4.47;;;10.40;99.90;10.10;97003.00;;;;5064072;28;20214;-70
2021/09/10 00:19:43;;;;;;;5.67;3.80;;;10.40;99.90;10.00;97000.00;;;;5063995;28;20604;-69
2021/09/10 00:22:32;;;;;;;4.57;4.17;;;10.40;99.90;9.90;97006.00;;;;5078169;28;20709;-69
2021/09/10 00:25:21;;;;;;;4.40;4.00;;;10.30;99.90;9.70;97000.00;;;;5064098;28;20203;-69
2021/09/10 00:28:09;;;;;;;7.40;3.90;;;10.20;99.90;9.70;96999.00;;;;5077394;28;20204;-68
2021/09/10 00:30:58;;;;;;;4.77;4.20;;;10.10;99.90;9.90;97002.00;;;;5063087;28;20223;-70
2021/09/10 00:33:47;;;;;;;4.90;4.23;;;10.10;99.90;9.90;97002.00;;;;5065381;28;21159;-69
2021/09/10 00:36:37;;;;;;;4.90;4.03;;;10.10;99.90;9.90;96998.00;;;;5063585;28;20721;-69
2021/09/10 00:39:26;;;;;;;8.73;4.27;;;10.00;99.90;9.80;96992.00;;;;5068144;28;20698;-69
2021/09/10 00:42:15;;;;;;;4.80;4.40;;;10.00;99.90;9.90;96988.00;;;;5068234;28;20230;-69
2021/09/10 00:45:05;;;;;;;4.97;4.43;;;10.00;99.90;9.90;96987.00;;;;5068497;28;20208;-68
2021/09/10 00:47:54;;;;;;;6.23;4.47;;;10.00;99.90;9.90;96990.00;;;;5069156;28;20210;-69
2021/09/10 00:50:43;;;;;;;8.97;5.60;;;10.00;99.90;9.80;96982.00;;;;5094000;28;20593;-69
2021/09/10 00:53:34;;;;;;;4.40;4.00;;;10.10;99.90;9.70;96989.00;;;;5071324;28;20215;-69
2021/09/10 00:56:23;;;;;;;8.43;4.20;;;10.10;99.90;9.60;96987.00;;;;5068997;28;20650;-67
2021/09/10 00:59:12;;;;;;;4.40;4.00;;;10.00;99.90;9.60;96987.00;;;;5067655;28;20220;-69
2021/09/10 01:02:02;;;;;;;5.00;4.20;;;9.90;99.90;9.60;96996.00;;;;5066841;28;20275;-69
2021/09/10 01:04:51;;;;;;;4.87;3.87;;;9.90;99.90;9.50;96979.00;;;;5067644;28;20560;-70
2021/09/10 01:07:41;;;;;;;5.17;3.83;;;9.90;99.90;9.60;96997.00;;;;5067575;28;20204;-69
2021/09/10 01:10:32;;;;;;;5.33;4.47;;;9.90;99.90;9.40;96987.00;;;;5067097;28;20228;-70
2021/09/10 01:13:39;;;;;;;10.40;4.73;;;9.80;99.90;9.70;96993.00;;;;5069013;28;20252;-70
2021/09/10 01:16:29;;;;;;;7.33;4.30;;;9.90;99.90;9.50;96991.00;;;;5067039;28;20671;-70
2021/09/10 01:19:27;;;;;;;5.30;4.10;;;9.90;99.90;9.50;96988.00;;;;5066959;28;21112;-69
2021/09/10 01:22:16;;;;;;;7.90;4.77;;;9.80;99.90;9.60;96992.00;;;;5079768;28;20226;-69
2021/09/10 01:25:14;;;;;;;5.37;4.27;;;9.90;99.90;9.40;96985.00;;;;5066156;28;20705;-69
2021/09/10 01:28:03;;;;;;;4.40;3.93;;;9.90;99.90;9.70;96992.00;;;;5068112;28;20200;-69
2021/09/10 01:30:52;;;;;;;7.17;4.93;;;9.90;99.90;9.80;96997.00;;;;5065840;28;20211;-68
2021/09/10 01:33:41;;;;;;;6.93;5.17;;;9.90;99.90;9.70;96980.00;;;;5067989;28;20196;-69
2021/09/10 01:36:30;;;;;;;9.60;5.37;;;9.90;99.90;9.60;96989.00;;;;5068292;28;20203;-69
2021/09/10 01:39:19;;;;;;;5.70;4.23;;;9.90;99.90;9.50;96985.00;;;;5067287;28;20224;-69
2021/09/10 01:42:09;;;;;;;6.10;4.80;;;9.90;99.90;9.40;96983.00;;;;5094073;28;20652;-69
2021/09/10 01:44:58;;;;;;;7.77;4.40;;;9.80;99.90;9.00;96990.00;;;;5066070;28;20737;-69
2021/09/10 01:47:48;;;;;;;5.40;4.80;;;9.70;99.90;8.90;96996.00;;;;5066469;28;20210;-69
2021/09/10 01:50:36;;;;;;;5.20;4.37;;;9.60;99.90;9.00;96986.00;;;;5093457;28;20199;-69
2021/09/10 01:53:32;;;;;;;5.30;4.83;;;9.50;99.90;9.00;96991.00;;;;5073113;28;20226;-70
2021/09/10 01:56:21;;;;;;;5.87;4.50;;;9.40;99.90;8.90;96977.00;;;;5067029;28;20223;-70
2021/09/10 01:59:11;;;;;;;6.80;4.83;;;9.40;99.90;9.00;96989.00;;;;5066609;28;20227;-69
2021/09/10 02:02:00;;;;;;;5.77;5.20;;;9.40;99.90;9.20;96990.00;;;;5074025;28;20491;-69
2021/09/10 02:04:49;;;;;;;5.93;5.33;;;9.40;99.90;9.20;96997.00;;;;5080699;28;20214;-69
2021/09/10 02:07:39;;;;;;;5.47;4.97;;;9.40;99.90;9.30;96996.00;;;;5081624;28;20211;-70
2021/09/10 02:10:28;;;;;;;5.50;4.37;;;9.40;99.90;9.10;96980.00;;;;5075123;28;20217;-68
2021/09/10 02:13:16;;;;;;;8.37;4.77;;;9.50;99.90;9.10;96992.00;;;;5066698;28;20196;-69
2021/09/10 02:16:07;;;;;;;4.97;4.27;;;9.40;99.90;9.00;96988.00;;;;5066679;28;20208;-69
2021/09/10 02:18:56;;;;;;;7.03;5.20;;;9.40;99.90;9.10;96986.00;;;;5065937;28;20258;-69
2021/09/10 02:21:45;;;;;;;6.23;4.73;;;9.40;99.90;9.10;96977.00;;;;5073615;28;20249;-68
2021/09/10 02:24:34;;;;;;;5.30;4.60;;;9.40;99.90;8.90;96974.00;;;;5067091;28;20215;-68
2021/09/10 02:27:23;;;;;;;4.33;3.93;;;9.30;99.90;8.70;96975.00;;;;5066502;28;20707;-68
2021/09/10 02:30:13;;;;;;;5.97;5.10;;;9.20;99.90;8.50;96972.00;;;;5065571;28;20199;-69
2021/09/10 02:33:03;;;;;;;4.73;4.17;;;9.10;99.90;8.60;96977.00;;;;5066069;28;20208;-69
2021/09/10 02:35:52;;;;;;;6.27;4.63;;;9.00;99.90;8.70;96968.00;;;;5067449;28;20210;-68
2021/09/10 02:38:41;;;;;;;5.67;5.07;;;9.00;99.90;8.60;96966.00;;;;5065280;28;20223;-68
2021/09/10 02:41:30;;;;;;;7.37;4.63;;;9.00;99.90;8.60;96967.00;;;;5065033;28;20227;-69
2021/09/10 02:44:19;;;;;;;5.40;4.53;;;9.00;99.90;8.60;96968.00;;;;5079343;28;20196;-69
2021/09/10 02:47:08;;;;;;;8.47;5.37;;;9.00;99.90;8.70;96970.00;;;;5065808;28;20207;-69
2021/09/10 02:49:58;;;;;;;7.97;5.73;;;9.00;99.90;8.60;96967.00;;;;5075519;28;20710;-69
2021/09/10 02:52:47;;;;;;;5.83;4.67;;;9.00;99.90;8.50;96954.00;;;;5065940;28;20230;-68
2021/09/10 02:55:36;;;;;;;5.27;4.77;;;9.00;99.90;8.30;96961.00;;;;5065746;28;20595;-69
2021/09/10 02:58:25;;;;;;;6.40;5.33;;;8.90;99.90;8.50;96963.00;;;;5065865;28;20204;-69
2021/09/10 03:01:14;;;;;;;6.30;5.17;;;8.90;99.90;8.70;96955.00;;;;5065126;28;20239;-68
2021/09/10 03:04:03;;;;;;;13.40;5.43;;;8.90;99.90;8.60;96950.00;;;;5066007;28;20215;-69
2021/09/10 03:06:53;;;;;;;5.73;5.17;;;8.90;99.90;8.40;96939.00;;;;5065249;28;20218;-70
2021/09/10 03:09:42;;;;;;;9.73;5.60;;;8.00;99.90;8.20;96941.00;;;;5065240;28;20582;-69
2021/09/10 03:12:32;;;;;;;6.37;5.07;;;8.80;99.90;8.20;96943.00;;;;5064254;28;20234;-68
2021/09/10 03:15:21;;;;;;;5.43;4.93;;;8.70;99.90;8.50;96942.00;;;;5065225;28;20200;-70
2021/09/10 03:18:10;;;;;;;9.73;5.97;;;8.80;99.90;8.40;96936.00;;;;5065059;28;20199;-69
2021/09/10 03:20:59;;;;;;;5.83;5.00;;;8.80;99.90;8.70;96942.00;;;;5065173;28;20636;-69
2021/09/10 03:23:49;;;;;;;7.00;4.97;;;8.90;99.90;9.00;96936.00;;;;5073806;28;20207;-69
2021/09/10 03:26:41;;;;;;;9.87;6.80;;;8.90;99.90;8.90;96939.00;;;;5065589;28;20403;-69
2021/09/10 03:29:30;;;;;;;7.50;6.13;;;9.00;99.90;8.70;96947.00;;;;5063421;28;20391;-70
2021/09/10 03:32:19;;;;;;;5.47;4.27;;;9.10;99.90;8.50;96938.00;;;;5065573;28;20281;-69
2021/09/10 03:35:09;;;;;;;6.37;5.00;;;9.00;99.90;8.20;96940.00;;;;5065081;28;20648;-69
2021/09/10 03:37:58;;;;;;;6.57;4.10;;;9.00;99.90;8.10;96939.00;;;;5064897;28;20216;-69
2021/09/10 03:40:48;;;;;;;9.63;5.33;;;8.80;99.90;8.10;96940.00;;;;5064731;28;20246;-69
2021/09/10 03:43:37;;;;;;;5.60;5.00;;;8.70;99.90;8.10;96945.00;;;;5064375;28;20204;-69
2021/09/10 03:46:26;;;;;;;5.60;4.73;;;8.60;99.90;8.10;96940.00;;;;5065936;28;20215;-69
2021/09/10 03:49:15;;;;;;;5.87;4.43;;;8.60;99.90;8.20;96934.00;;;;5072396;28;20217;-68
2021/09/10 03:52:05;;;;;;;9.07;5.33;;;7.70;99.90;8.30;96939.00;;;;5086799;28;20238;-69
2021/09/10 03:54:54;;;;;;;6.93;5.63;;;8.60;99.90;8.10;96944.00;;;;5066118;28;20207;-69
2021/09/10 03:57:44;;;;;;;5.40;4.80;;;10.20;99.90;7.90;96930.00;;;;5064829;28;20208;-69
2021/09/10 04:00:33;;;;;;;6.27;5.33;;;8.50;99.90;8.00;96945.00;;;;5066466;28;20243;-70
2021/09/10 04:03:22;;;;;;;6.57;5.53;;;8.40;99.90;7.90;96945.00;;;;5084031;28;20281;-69
2021/09/10 04:06:10;;;;;;;7.67;6.47;;;8.40;99.90;7.90;96927.00;;;;5086665;28;20209;-69
2021/09/10 04:08:59;;;;;;;6.77;6.10;;;8.40;99.90;7.80;96930.00;;;;5077475;28;20208;-70
2021/09/10 04:11:48;;;;;;;5.87;5.23;;;8.40;99.90;7.90;96931.00;;;;5064547;28;20311;-70
2021/09/10 04:14:38;;;;;;;5.77;5.27;;;8.30;99.90;8.00;96927.00;;;;5066256;28;20683;-69
2021/09/10 04:17:27;;;;;;;7.00;6.17;;;8.40;99.90;7.90;96936.00;;;;5065296;28;20207;-70
2021/09/10 04:20:16;;;;;;;6.60;4.80;;;8.40;99.90;7.80;96934.00;;;;5065068;28;20199;-69
2021/09/10 04:23:05;;;;;;;6.23;5.37;;;8.30;99.90;7.80;96933.00;;;;5079226;28;20200;-69
2021/09/10 04:25:56;;;;;;;12.97;6.13;;;8.30;99.90;7.90;96942.00;;;;5066439;28;20226;-69
2021/09/10 04:28:46;;;;;;;7.77;6.60;;;8.30;99.90;8.10;96940.00;;;;5064788;28;20203;-69
2021/09/10 04:31:37;;;;;;;6.87;6.13;;;8.40;99.90;8.50;96938.00;;;;5069065;28;20631;-71
2021/09/10 04:34:25;;;;;;;7.30;6.30;;;8.60;99.90;8.60;96953.00;;;;5066487;28;20219;-70
2021/09/10 04:37:14;;;;;;;18.90;6.97;;;8.70;99.90;8.50;96950.00;;;;5064463;28;20224;-70
2021/09/10 04:40:04;;;;;;;11.80;5.17;;;8.80;99.90;8.10;96947.00;;;;5065402;28;20901;-70
2021/09/10 04:42:53;;;;;;;7.10;6.10;;;8.70;99.90;8.20;96954.00;;;;5065594;28;20580;-70
2021/09/10 04:45:41;;;;;;;6.13;5.20;;;8.60;99.90;8.20;96958.00;;;;5066484;28;20215;-70
2021/09/10 04:48:32;;;;;;;8.23;5.37;;;8.60;99.90;8.40;96958.00;;;;5066160;28;20210;-69
2021/09/10 04:51:21;;;;;;;9.43;5.93;;;8.60;99.90;8.70;96957.00;;;;5068703;28;20227;-69
2021/09/10 04:54:09;;;;;;;8.10;6.87;;;8.70;99.90;8.70;96962.00;;;;5083410;28;20214;-69
2021/09/10 04:56:58;;;;;;;8.80;6.57;;;8.80;99.90;8.70;96967.00;;;;5082742;28;20681;-70
2021/09/10 04:59:47;;;;;;;10.00;6.33;;;8.90;99.90;8.80;96959.00;;;;5086701;28;20210;-69
2021/09/10 05:02:37;;;;;;;7.47;6.37;;;8.90;99.90;8.70;96963.00;;;;5081224;28;20305;-70
2021/09/10 05:05:28;;;;;;;6.63;4.60;;;9.00;99.90;8.50;96957.00;;;;5085391;28;20203;-70
2021/09/10 05:08:17;;;;;;;7.77;6.47;;;8.90;99.90;8.10;96963.00;;;;5082403;28;20666;-69
2021/09/10 05:11:06;;;;;;;7.90;5.70;;;8.80;99.90;8.10;96956.00;;;;5071110;28;20220;-69
2021/09/10 05:13:54;;;;;;;6.80;6.20;;;8.70;99.90;8.10;96961.00;;;;5065715;28;20208;-69
2021/09/10 05:16:43;;;;;;;6.43;5.83;;;8.60;99.90;8.20;96956.00;;;;5064927;28;20204;-69
2021/09/10 05:19:33;;;;;;;6.43;5.77;;;8.60;99.90;8.40;96948.00;;;;5064372;28;20203;-68
2021/09/10 05:22:23;;;;;;;6.70;6.10;;;8.70;99.90;8.60;96957.00;;;;5077558;28;20312;-69
2021/09/10 05:25:12;;;;;;;9.70;7.23;;;8.80;99.90;8.60;96957.00;;;;5067898;28;20200;-68
2021/09/10 05:28:01;;;;;;;7.53;5.63;;;8.80;99.90;8.80;96961.00;;;;5067735;28;20510;-68
2021/09/10 05:30:50;;;;;;;7.10;6.07;;;8.90;99.90;9.00;96960.00;;;;5066778;28;20208;-70
2021/09/10 05:33:39;;;;;;;7.23;6.53;;;9.10;99.90;9.10;96968.00;;;;5067180;28;20230;-70
2021/09/10 05:36:28;;;;;;;7.93;6.30;;;9.20;99.90;8.90;96964.00;;;;5067270;28;20223;-69
2021/09/10 05:39:18;;;;;;;6.57;5.97;;;9.20;99.90;9.20;96964.00;;;;5072438;28;20195;-70
2021/09/10 05:42:07;;;;;;;7.23;6.03;;;9.30;99.90;9.50;96971.00;;;;5079995;28;20230;-70
2021/09/10 05:44:56;;;;;;;7.07;5.97;;;9.40;99.90;9.70;96979.00;;;;5080754;28;20200;-70
2021/09/10 05:47:45;;;;;;;9.73;7.33;;;9.60;99.90;9.90;96975.00;;;;5081962;28;20783;-68
2021/09/10 05:50:34;;;;;;;10.30;6.13;;;9.80;99.90;9.80;96976.00;;;;5093263;28;20210;-69
2021/09/10 05:53:23;;;;;;;14.00;7.10;;;9.90;99.90;9.90;96965.00;;;;5067899;28;20704;-70
2021/09/10 05:56:13;;;;;;;8.27;5.93;;;10.00;99.90;10.10;96971.00;;;;5070716;28;20198;-68
2021/09/10 05:59:02;;;;;;;6.00;5.47;;;10.10;99.90;10.20;96962.00;;;;5080979;28;20191;-73
2021/09/10 06:01:51;;;;;;;6.60;5.97;;;10.20;99.90;10.40;96962.00;;;;5081727;28;20223;-69
2021/09/10 06:04:40;;;;;;;8.00;7.20;;;10.40;99.90;10.80;96976.00;;;;5085284;28;20199;-71
2021/09/10 06:07:30;;;;;;;9.17;6.60;;;10.60;99.90;11.00;96967.00;;;;5080332;28;20291;-71
2021/09/10 06:10:19;;;;;;;8.57;6.80;;;10.70;99.90;10.90;96968.00;;;;5083960;28;20222;-73
2021/09/10 06:13:10;;;;;;;8.23;6.37;;;10.90;99.90;11.00;96981.00;;;;5089341;28;20200;-69
2021/09/10 06:15:59;;;;;;;9.77;7.27;;;11.00;99.90;11.30;96966.00;;;;5073272;28;20213;-71
2021/09/10 06:18:48;;;;;;;7.10;6.13;;;11.20;99.90;11.50;96967.00;;;;5067883;28;20214;-72
2021/09/10 06:21:37;;;;;;;9.10;6.47;;;11.30;99.90;11.80;96964.00;;;;5065201;28;20695;-71
2021/09/10 06:24:26;;;;;;;12.53;6.47;;;11.50;99.90;12.10;96971.00;;;;5072196;28;20206;-70
2021/09/10 06:27:15;;;;;;;6.70;6.00;;;11.70;99.90;12.00;96974.00;;;;5069354;28;20203;-71
2021/09/10 06:30:07;;;;;;;6.50;5.90;;;11.90;99.90;12.20;96977.00;;;;5070416;28;20228;-72
2021/09/10 06:32:56;;;;;;;9.40;6.50;;;12.10;99.90;12.60;96973.00;;;;5073556;28;20596;-71
2021/09/10 06:35:45;;;;;;;8.80;6.27;;;12.30;99.90;12.80;96983.00;;;;5068898;28;20208;-71
2021/09/10 06:38:33;;;;;;;9.33;6.73;;;12.50;99.90;13.10;96977.00;;;;5068471;28;20217;-72
2021/09/10 06:41:22;;;;;;;8.97;6.60;;;12.70;99.90;13.40;96973.00;;;;5067525;28;20223;-71
2021/09/10 06:44:12;;;;;;;16.60;7.23;;;12.90;99.90;13.70;96974.00;;;;5070751;28;20211;-72
2021/09/10 06:47:02;;;;;;;7.93;6.23;;;13.20;99.90;13.90;96969.00;;;;5060987;28;20219;-72
2021/09/10 06:49:51;;;;;;;9.27;6.60;;;13.40;99.90;14.00;96972.00;;;;5068336;28;20192;-72
2021/09/10 06:52:42;;;;;;;10.50;5.97;;;13.60;99.90;14.20;96978.00;;;;5064873;28;20224;-73
2021/09/10 06:55:31;;;;;;;6.30;5.00;;;13.80;99.90;14.40;96974.00;;;;5064762;28;20210;-71
2021/09/10 06:58:20;;;;;;;10.03;6.47;;;14.00;99.90;14.50;96984.00;;;;5068287;28;20212;-72
2021/09/10 07:01:09;;;;;;;11.63;5.77;;;14.20;99.90;14.70;96982.00;;;;5064372;28;20224;-71
2021/09/10 07:03:59;;;;;;;9.43;5.40;;;14.40;99.90;15.10;96980.00;;;;5067378;28;20670;-72
2021/09/10 07:06:48;;;;;;;8.17;5.63;;;14.60;99.90;15.30;96985.00;;;;5068400;28;20211;-72
2021/09/10 07:09:39;;;;;;;10.33;5.80;;;14.80;99.90;15.40;96999.00;;;;5064599;28;20663;-71
2021/09/10 07:12:28;;;;;;;7.33;5.70;;;15.00;99.90;15.70;96993.00;;;;5070130;28;20216;-71
2021/09/10 07:15:17;;;;;;;8.70;6.37;;;15.20;99.90;15.40;97002.00;;;;5062641;28;20203;-70
2021/09/10 07:18:06;;;;;;;7.77;6.13;;;15.30;99.90;15.90;97005.00;;;;5064193;28;20275;-72
2021/09/10 07:20:56;;;;;;;10.50;6.10;;;15.40;99.90;15.90;97009.00;;;;5065371;28;21037;-71
2021/09/10 07:23:45;;;;;;;8.93;5.40;;;15.50;99.90;16.20;97027.00;;;;5071621;28;20219;-72
2021/09/10 07:26:34;;;;;;;9.37;5.20;;;15.70;99.90;16.40;97015.00;;;;5064709;28;20281;-72
2021/09/10 07:29:23;;;;;;;13.47;6.13;;;15.90;99.90;16.50;97020.00;;;;5059120;28;20214;-72
2021/09/10 07:32:12;;;;;;;9.03;5.53;;;16.00;99.90;16.80;97013.00;;;;5065757;28;20226;-72
2021/09/10 07:35:01;;;;;;;7.00;5.53;;;16.20;99.90;17.00;97019.00;;;;5067166;28;20211;-72
2021/09/10 07:37:51;;;;;;;6.27;5.10;;;16.40;99.90;17.10;97019.00;;;;5068291;28;20211;-71
2021/09/10 07:40:40;;;;;;;6.40;4.93;;;16.60;99.90;17.20;97013.00;;;;5067444;28;20199;-72
2021/09/10 07:43:29;;;;;;;9.53;4.90;;;16.80;99.90;17.50;97009.00;;;;5068857;28;20250;-71
2021/09/10 07:46:18;;;;;;;7.67;5.57;;;16.90;99.90;17.80;97016.00;;;;5067757;28;20192;-71
2021/09/10 07:49:07;;;;;;;9.97;6.07;;;17.10;99.90;17.90;97007.00;;;;5068193;28;20397;-72
2021/09/10 07:51:56;;;;;;;8.10;5.00;;;17.30;99.90;18.00;97012.00;;;;5066672;28;20305;-71
2021/09/10 07:54:46;;;;;;;8.10;5.50;;;17.50;99.90;18.30;97025.00;;;;5063372;28;20208;-73
2021/09/10 07:57:42;;;;;;;8.10;5.60;;;17.70;99.90;18.50;97013.00;;;;5069757;28;20204;-73
2021/09/10 08:00:31;;;;;;;7.87;4.50;;;17.80;99.90;18.60;97006.00;;;;5069293;28;20230;-71
2021/09/10 08:03:20;;;;;;;5.07;4.57;;;18.00;99.90;18.90;97007.00;;;;5067568;28;20227;-73
2021/09/10 08:06:09;;;;;;;8.90;4.73;;;18.20;99.90;19.10;97013.00;;;;5066737;28;20203;-72
2021/09/10 08:08:58;;;;;;;10.60;4.67;;;18.40;99.90;19.20;97007.00;;;;5064980;28;20704;-73
2021/09/10 08:11:48;;;;;;;9.20;4.70;;;18.50;99.90;19.50;97001.00;;;;5067039;28;20694;-71
2021/09/10 08:14:37;;;;;;;6.60;5.00;;;18.70;99.90;19.60;97002.00;;;;5077106;28;20430;-73
2021/09/10 08:17:26;;;;;;;8.27;5.90;;;18.90;99.90;19.80;97009.00;;;;5081118;28;20658;-71
2021/09/10 08:20:15;;;;;;;5.57;4.37;;;19.00;99.90;19.90;97004.00;;;;5079328;28;20199;-74
2021/09/10 08:23:04;;;;;;;8.23;4.63;;;19.20;99.90;20.20;97004.00;;;;5071030;28;20709;-71
2021/09/10 08:25:54;;;;;;;6.53;4.73;;;19.40;99.90;20.30;97011.00;;;;5067656;28;20203;-71
2021/09/10 08:28:44;;;;;;;10.77;5.13;;;19.60;99.90;20.40;97016.00;;;;5065778;28;20211;-73
2021/09/10 08:31:33;;;;;;;12.60;4.63;;;19.70;99.90;20.60;97006.00;;;;5063149;28;20234;-72
2021/09/10 08:34:22;;;;;;;7.40;4.50;;;19.90;99.90;20.70;97001.00;;;;5065734;28;20404;-71
2021/09/10 08:37:11;;;;;;;6.63;4.33;;;20.00;99.90;20.90;97007.00;;;;5063966;28;20222;-73
2021/09/10 08:40:01;;;;;;;6.97;4.57;;;20.20;99.90;21.00;97014.00;;;;5065570;28;20204;-73
2021/09/10 08:42:50;;;;;;;5.53;3.57;;;20.30;99.90;21.20;97010.00;;;;5064051;28;20224;-71
2021/09/10 08:45:40;;;;;;;8.27;4.30;;;20.50;99.90;21.40;97008.00;;;;5063474;28;20203;-72
2021/09/10 08:48:30;;;;;;;6.70;4.33;;;20.60;99.90;21.60;97004.00;;;;5060972;28;20732;-72
2021/09/10 08:51:20;;;;;;;9.30;4.03;;;20.80;99.90;21.70;97004.00;;;;5064659;28;20226;-73
2021/09/10 08:54:09;;;;;;;6.33;4.33;;;20.90;99.90;22.00;97007.00;;;;5064836;28;20561;-71
2021/09/10 08:56:58;;;;;;;7.47;4.37;;;21.10;99.90;22.20;97009.00;;;;5063280;28;20207;-73
2021/09/10 09:00:02;;;;;;;6.30;3.90;;;21.30;99.90;22.40;97008.00;;;;5074251;28;20211;-72
2021/09/10 09:03:04;;;;;;;6.73;3.60;;;21.50;99.90;22.60;97004.00;;;;5068822;28;20220;-72
2021/09/10 09:05:53;;;;;;;4.10;3.70;;;21.70;99.90;22.70;96992.00;;;;5071004;28;20209;-72
2021/09/10 09:08:46;;;;;;;4.63;3.53;;;21.90;99.90;22.70;96997.00;;;;5064207;28;20516;-71
2021/09/10 09:11:35;;;;;;;8.10;3.90;;;22.00;98.70;22.80;96993.00;;;;5064944;28;20223;-71
2021/09/10 09:14:47;;;;;;;4.83;3.53;;;22.10;97.90;22.70;96985.00;;;;5067256;28;20215;-73
2021/09/10 09:17:38;;;;;;;4.97;3.40;;;22.10;95.10;23.00;96982.00;;;;5069109;28;20773;-72
2021/09/10 09:20:28;;;;;;;5.27;3.07;;;22.30;94.50;23.00;96982.00;;;;5065548;28;20204;-71
2021/09/10 09:23:17;;;;;;;4.37;3.40;;;22.40;93.50;23.40;96978.00;;;;5067876;28;20594;-73
2021/09/10 09:26:18;;;;;;;3.47;2.90;;;22.50;93.50;23.80;96987.00;;;;5070349;28;20200;-72
2021/09/10 09:29:09;;;;;;;3.53;3.20;;;22.80;93.40;24.00;96986.00;;;;5069421;28;20229;-71
2021/09/10 09:32:01;;;;;;;7.53;4.67;;;23.00;92.60;24.30;96985.00;;;;5068905;28;20231;-72
2021/09/10 09:34:51;;;;;;;4.70;3.63;;;23.20;92.30;24.00;96973.00;;;;5070680;28;20196;-72
2021/09/10 09:37:42;;;;;;;5.20;3.13;;;23.40;90.10;24.30;96977.00;;;;5065495;28;20211;-70
2021/09/10 09:40:34;;;;;;;5.57;3.20;;;23.50;89.20;24.00;96984.00;;;;5067934;28;20200;-71
2021/09/10 09:43:27;;;;;;;9.10;3.63;;;23.60;85.10;23.90;96970.00;;;;5071592;28;20216;-71
2021/09/10 09:46:19;;;;;;;5.90;3.87;;;23.60;82.80;23.80;96974.00;;;;5065644;28;23776;-70
2021/09/10 09:49:10;;;;;;;9.30;3.33;;;23.50;80.70;24.10;96971.00;;;;5066735;28;20588;-71
2021/09/10 09:52:01;;;;;;;4.87;3.53;;;23.60;80.60;24.40;96972.00;;;;5069828;28;20225;-74
2021/09/10 09:54:51;;;;;;;5.30;3.47;;;23.60;81.50;24.70;96973.00;;;;5075119;28;20329;-69
2021/09/10 09:57:41;;;;;;;6.57;3.60;;;23.80;83.20;24.90;96976.00;;;;5070779;28;20204;-72
2021/09/10 10:00:30;;;;;;;7.17;3.20;;;24.10;81.60;25.30;96982.00;;;;5069069;28;20571;-70
2021/09/10 10:03:19;;;;;;;5.00;4.00;;;24.20;82.80;25.20;96969.00;;;;5071188;28;20230;-68
2021/09/10 10:06:17;;;;;;;7.70;3.40;;;24.40;79.80;25.40;96967.00;;;;5065307;28;20204;-70
2021/09/10 10:09:12;;;;;;;6.73;3.97;;;24.60;78.30;26.00;96967.00;;;;5062659;28;20207;-74
2021/09/10 10:12:03;;;;;;;3.97;3.03;;;24.60;79.10;26.10;96968.00;;;;5069070;28;20220;-75
2021/09/10 10:14:52;;;;;;;5.53;3.67;;;25.00;76.80;25.90;96960.00;;;;5069190;28;20195;-70
2021/09/10 10:17:41;;;;;;;4.80;3.73;;;25.20;75.10;25.70;96958.00;;;;5065948;28;20716;-72
2021/09/10 10:20:53;;;;;;;5.60;3.50;;;25.20;74.30;26.20;96960.00;;;;5064602;28;20209;-71
2021/09/10 10:23:58;;;;;;;5.63;3.40;;;25.30;73.40;26.30;96956.00;;;;5062775;28;20705;-71
2021/09/10 10:26:47;;;;;;;8.20;3.53;;;25.50;71.30;25.80;96949.00;;;;5064988;28;20197;-72
2021/09/10 10:29:38;;;;;;;3.00;2.73;;;25.50;69.00;26.40;96948.00;;;;5067700;28;20589;-72
2021/09/10 10:32:33;;;;;;;7.30;3.90;;;25.60;70.30;26.50;96946.00;;;;5067882;28;20220;-73
2021/09/10 10:35:25;;;;;;;5.77;3.57;;;25.70;68.20;26.70;96943.00;;;;5066984;28;20296;-71
2021/09/10 10:38:14;;;;;;;4.67;2.63;;;25.80;68.00;24.90;96934.00;;;;5067340;28;20828;-73
2021/09/10 10:41:20;;;;;;;5.80;3.20;;;25.70;64.20;26.00;96939.00;;;;5062587;28;20219;-72
2021/09/10 10:44:50;;;;;;;3.40;3.10;;;25.40;66.20;27.00;96926.00;;;;5064196;28;20226;-72
2021/09/10 10:47:39;;;;;;;4.03;3.30;;;25.60;67.30;26.80;96925.00;;;;5063448;28;20202;-72
2021/09/10 10:50:35;;;;;;;4.47;3.37;;;26.00;65.30;26.00;96926.00;;;;5065781;28;20215;-73
2021/09/10 10:53:24;;;;;;;4.50;3.43;;;26.00;62.80;27.40;96932.00;;;;5070836;28;20201;-71
2021/09/10 10:56:48;;;;;;;7.17;3.10;;;26.20;65.60;27.40;96923.00;;;;5072404;28;20234;-74
2021/09/10 10:59:38;;;;;;;5.20;3.50;;;26.30;61.30;28.00;96924.00;;;;5066149;28;20209;-72
2021/09/10 11:02:31;;;;;;;3.37;2.80;;;26.60;64.40;28.40;96922.00;;;;5065370;28;20711;-71
2021/09/10 11:05:26;;;;;;;5.03;3.20;;;26.90;61.90;28.50;96918.00;;;;5073825;28;20233;-71
2021/09/10 11:08:19;;;;;;;6.73;3.40;;;27.30;61.50;28.80;96914.00;;;;5063854;28;20213;-69
2021/09/10 11:11:09;;;;;;;6.03;3.47;;;;;28.40;96914.00;;;;5069744;28;20241;-74
2021/09/10 11:13:58;;;;;;;4.25;3.55;;;27.90;58.60;26.90;96902.00;;;;5068122;28;20238;-69
2021/09/10 11:16:47;;;;;;;5.90;2.67;;;27.90;57.60;28.50;96905.00;;;;5064847;28;20209;-70
2021/09/10 11:19:38;;;;;;;6.38;4.10;;;27.70;59.60;29.60;96896.00;;;;5065224;28;20219;-71
2021/09/10 11:22:28;;;;;;;3.95;3.10;;;28.00;60.10;30.00;96916.00;;;;5068716;28;20718;-70
2021/09/10 11:25:17;;;;;;;5.82;3.42;;;28.40;59.30;30.40;96895.00;;;;5062477;28;20843;-68
2021/09/10 11:28:10;;;;;;;5.03;3.10;;;28.70;57.90;29.10;96897.00;;;;5064891;28;20346;-69
2021/09/10 11:31:03;;;;;;;3.72;3.00;;;29.10;56.00;30.60;96900.00;;;;5067443;28;20720;-68
2021/09/10 11:33:54;;;;;;;5.25;2.47;;;29.20;56.90;31.40;96897.00;;;;5067751;28;20226;-70
2021/09/10 11:36:44;;;;;;;4.45;3.22;;;29.60;58.10;31.30;96897.00;;;;5064419;28;20205;-72
2021/09/10 11:39:44;;;;;;;5.47;2.92;;;29.90;56.40;31.20;96902.00;;;;5066040;28;20225;-72
2021/09/10 11:42:44;;;;;;;7.53;3.30;;;30.20;54.90;31.40;96909.00;;;;5063472;28;20714;-73
2021/09/10 11:45:35;;;;;;;7.18;2.90;;;30.40;53.90;31.20;96901.00;;;;5064828;28;20667;-73
2021/09/10 11:48:26;;;;;;;7.20;3.08;;;30.50;52.90;29.80;96896.00;;;;5063400;28;20204;-71
2021/09/10 11:51:37;;;;;;;5.40;3.60;;;30.50;51.70;30.20;96895.00;;;;5064520;28;20235;-72
2021/09/10 11:54:28;;;;;;;4.63;2.63;;;30.30;52.30;31.30;96899.00;;;;5065591;28;20224;-72
2021/09/10 11:57:20;;;;;;;4.68;2.83;;;30.30;53.20;31.70;96897.00;;;;5072529;28;20204;-74
2021/09/10 12:00:22;;;;;;;6.70;3.25;;;30.50;52.40;32.20;96891.00;;;;5064224;28;20202;-72
2021/09/10 12:03:11;;;;;;;3.70;2.33;;;30.70;52.40;32.10;96892.00;;;;5068021;28;20206;-70
2021/09/10 12:06:04;;;;;;;3.95;2.78;;;30.90;51.20;31.00;96894.00;;;;5063547;28;20198;-71
2021/09/10 12:09:16;;;;;;;3.75;2.95;;;30.70;51.20;30.80;96880.00;;;;5061799;28;20679;-68
2021/09/10 12:12:21;;;;;;;11.07;3.17;;;30.90;51.90;31.80;96878.00;;;;5063850;28;20697;-73
2021/09/10 12:15:10;;;;;;;4.60;3.13;;;30.90;51.30;31.60;96875.00;;;;5062794;28;20224;-70
2021/09/10 12:18:09;;;;;;;4.57;3.00;;;31.10;50.80;30.00;96872.00;;;;5063254;28;20199;-72
2021/09/10 12:20:58;;;;;;;11.45;3.00;;;31.10;49.40;28.50;96875.00;;;;5064389;28;20237;-68
2021/09/10 12:23:47;;;;;;;4.75;3.13;;;30.20;49.10;27.90;96869.00;;;;5068933;28;21063;-70
2021/09/10 12:26:54;;;;;;;5.13;3.13;;;29.40;50.00;30.00;96865.00;;;;5066704;28;20210;-71
2021/09/10 12:29:44;;;;;;;4.13;3.25;;;29.20;51.70;30.00;96871.00;;;;5061775;28;20733;-73
2021/09/10 12:32:33;;;;;;;4.78;2.67;;;29.30;50.80;31.80;96861.00;;;;5065030;28;20232;-71
2021/09/10 12:35:23;;;;;;;9.00;3.78;;;29.70;51.30;32.20;96861.00;;;;5072444;28;20223;-72
2021/09/10 12:38:14;;;;;;;3.70;2.47;;;30.20;51.30;32.70;96861.00;;;;5067579;28;20211;-74
2021/09/10 12:41:04;;;;;;;4.35;3.35;;;30.70;50.80;31.70;96861.00;;;;5064271;28;20261;-74
2021/09/10 12:43:52;;;;;;;4.05;2.72;;;31.00;48.70;32.00;96863.00;;;;5066292;28;20198;-73
2021/09/10 12:46:43;;;;;;;4.80;3.00;;;31.10;49.10;32.70;96865.00;;;;5070823;28;20199;-73